Time;durP1;ratioP1;P1;durP2;ratioP2;P2;SDS_P1;SDS_P2;PMS_P1;PMS_P2;Temp;Humidity;BMP_temperature;BMP_pressure;BME280_temperature;BME280_humidity;BME280_pressure;Samples;Min_cycle;Max_cycle;Signal;HPM_P1;HPM_P2
2022/07/24 00:01:33;;;;;;;;;;;691.50;1536.00;;;;;;5113364;28;19927;-56
2022/07/24 00:03:59;;;;;;;;;;;;;;;;;;5113812;28;19907;-56
2022/07/24 00:06:25;;;;;;;;;;;;;;;;;;5113309;28;20303;-55
2022/07/24 00:08:51;;;;;;;;;;;;;;;;;;5113362;28;19908;-56
2022/07/24 00:11:17;;;;;;;;;;;;;;;;;;5113301;28;19938;-56
2022/07/24 00:13:43;;;;;;;;;;;;;;;;;;5113234;28;19930;-54
2022/07/24 00:16:08;;;;;;;;;;;;;;;;;;5113511;28;19907;-54
2022/07/24 00:18:34;;;;;;;;;;;691.50;1510.40;;;;;;5113397;28;19959;-54
2022/07/24 00:21:00;;;;;;;;;;;691.30;1510.40;;;;;;5113501;28;19960;-55
2022/07/24 00:23:26;;;;;;;;;;;;;;;;;;5113481;28;20301;-55
2022/07/24 00:25:52;;;;;;;;;;;;;;;;;;5113078;28;19912;-54
2022/07/24 00:28:18;;;;;;;;;;;;;;;;;;5113077;28;19908;-56
2022/07/24 00:30:44;;;;;;;;;;;;;;;;;;5112878;28;19908;-56
2022/07/24 00:33:10;;;;;;;;;;;;;;;;;;5113105;28;19915;-54
2022/07/24 00:35:36;;;;;;;;;;;;;;;;;;5112996;28;19908;-56
2022/07/24 00:38:02;;;;;;;;;;;;;;;;;;5112893;28;19912;-56
2022/07/24 00:40:28;;;;;;;;;;;;;;;;;;5113017;28;19923;-55
2022/07/24 00:42:54;;;;;;;;;;;;;;;;;;5112715;28;19998;-55
2022/07/24 00:45:20;;;;;;;;;;;;;;;;;;5112924;28;20254;-55
2022/07/24 00:47:46;;;;;;;;;;;;;;;;;;5112546;28;19908;-55
2022/07/24 00:50:11;;;;;;;;;;;;;;;;;;5112597;28;20361;-55
2022/07/24 00:52:37;;;;;;;;;;;666.50;1510.40;;;;;;5112707;28;20003;-56
2022/07/24 00:55:03;;;;;;;;;;;666.40;1536.00;;;;;;5112524;28;19915;-55
2022/07/24 00:57:29;;;;;;;;;;;666.30;1536.00;;;;;;5112657;28;19908;-56
2022/07/24 00:59:54;;;;;;;;;;;666.30;1561.60;;;;;;5111434;28;19922;-56
2022/07/24 01:02:20;;;;;;;;;;;666.30;1536.00;;;;;;5112363;28;20003;-56
2022/07/24 01:04:47;;;;;;;;;;;666.20;1536.00;;;;;;5112403;28;20372;-55
2022/07/24 01:07:12;;;;;;;;;;;666.20;1561.60;;;;;;5112163;28;20357;-54
2022/07/24 01:09:38;;;;;;;;;;;666.20;1561.60;;;;;;5112523;28;19933;-56
2022/07/24 01:12:04;;;;;;;;;;;666.20;1561.60;;;;;;5112091;28;20280;-55
2022/07/24 01:14:31;;;;;;;;;;;666.20;1561.60;;;;;;5112069;28;20272;-56
2022/07/24 01:16:56;;;;;;;;;;;666.20;1561.60;;;;;;5112259;28;20318;-55
2022/07/24 01:19:22;;;;;;;;;;;666.20;1561.60;;;;;;5111719;28;20018;-56
2022/07/24 01:21:49;;;;;;;;;;;666.00;1587.20;;;;;;5112297;28;20000;-56
2022/07/24 01:24:15;;;;;;;;;;;666.00;1587.20;;;;;;5111906;28;19908;-57
2022/07/24 01:26:41;;;;;;;;;;;665.90;1587.20;;;;;;5112053;28;19908;-56
2022/07/24 01:29:06;;;;;;;;;;;666.10;1561.60;;;;;;5112147;28;19907;-55
2022/07/24 01:31:32;;;;;;;;;;;;;;;;;;5111741;28;19911;-55
2022/07/24 01:33:58;;;;;;;;;;;;;;;;;;5111860;28;19911;-55
2022/07/24 01:36:24;;;;;;;;;;;;;;;;;;5111779;28;19935;-54
2022/07/24 01:38:50;;;;;;;;;;;;;;;;;;5111731;28;20365;-56
2022/07/24 01:41:16;;;;;;;;;;;;;;;;;;5111733;28;19919;-55
2022/07/24 01:43:42;;;;;;;;;;;;;;;;;;5111612;28;19918;-56
2022/07/24 01:46:08;;;;;;;;;;;;;;;;;;5111778;28;20364;-55
2022/07/24 01:48:34;;;;;;;;;;;;;;;;;;5111416;28;19915;-55
2022/07/24 01:50:59;;;;;;;;;;;666.00;1536.00;;;;;;5111584;28;19973;-56
2022/07/24 01:53:25;;;;;;;;;;;665.90;1561.60;;;;;;5111774;28;20043;-55
2022/07/24 01:55:52;;;;;;;;;;;665.80;1561.60;;;;;;5111256;28;19915;-55
2022/07/24 01:58:18;;;;;;;;;;;;;;;;;;5111503;28;20354;-55
2022/07/24 02:00:43;;;;;;;;;;;;;;;;;;5111102;28;19927;-56
2022/07/24 02:03:09;;;;;;;;;;;666.00;1536.00;;;;;;5111353;28;20183;-55
2022/07/24 02:05:34;;;;;;;;;;;665.70;1561.60;;;;;;5111447;28;19915;-56
2022/07/24 02:08:00;;;;;;;;;;;665.70;1561.60;;;;;;5111334;28;19907;-54
2022/07/24 02:10:26;;;;;;;;;;;;;;;;;;5110990;28;19955;-55
2022/07/24 02:12:52;;;;;;;;;;;;;;;;;;5110615;28;19973;-55
2022/07/24 02:15:18;;;;;;;;;;;;;;;;;;5111166;28;20367;-55
2022/07/24 02:17:44;;;;;;;;;;;;;;;;;;5110910;28;19908;-56
2022/07/24 02:20:10;;;;;;;;;;;;;;;;;;5110799;28;20025;-55
2022/07/24 02:22:35;;;;;;;;;;;;;;;;;;5111451;28;19958;-55
2022/07/24 02:25:01;;;;;;;;;;;;;;;;;;5111132;28;19943;-55
2022/07/24 02:27:27;;;;;;;;;;;;;;;;;;5111047;28;20403;-55
2022/07/24 02:29:53;;;;;;;;;;;;;;;;;;5110814;28;20368;-55
2022/07/24 02:32:19;;;;;;;;;;;;;;;;;;5110853;28;19908;-55
2022/07/24 02:34:45;;;;;;;;;;;;;;;;;;5110812;28;19911;-55
2022/07/24 02:37:10;;;;;;;;;;;666.00;1510.40;;;;;;5110699;28;19908;-55
2022/07/24 02:39:36;;;;;;;;;;;665.80;1536.00;;;;;;5110981;28;20369;-56
2022/07/24 02:42:02;;;;;;;;;;;665.70;1536.00;;;;;;5110760;28;19915;-54
2022/07/24 02:44:27;;;;;;;;;;;665.60;1561.60;;;;;;5110778;28;19916;-56
2022/07/24 02:46:53;;;;;;;;;;;665.60;1561.60;;;;;;5110736;28;19915;-55
2022/07/24 02:49:18;;;;;;;;;;;665.60;1561.60;;;;;;5110738;28;20422;-55
2022/07/24 02:51:44;;;;;;;;;;;665.70;1536.00;;;;;;5110550;28;19912;-55
2022/07/24 02:54:09;;;;;;;;;;;666.10;1510.40;;;;;;5110719;28;19943;-55
2022/07/24 02:56:35;;;;;;;;;;;666.00;1510.40;;;;;;5111029;28;19908;-56
2022/07/24 02:59:00;;;;;;;;;;;666.10;1510.40;;;;;;5110628;28;19961;-56
2022/07/24 03:01:26;;;;;;;;;;;666.00;1536.00;;;;;;5110719;28;20257;-56
2022/07/24 03:03:52;;;;;;;;;;;665.90;1536.00;;;;;;5110459;28;19919;-55
2022/07/24 03:06:17;;;;;;;;;;;666.00;1561.60;;;;;;5110586;28;19960;-56
2022/07/24 03:08:43;;;;;;;;;;;666.10;1561.60;;;;;;5110422;28;19916;-55
2022/07/24 03:11:08;;;;;;;;;;;666.30;1561.60;;;;;;5110663;28;19912;-55
2022/07/24 03:13:34;;;;;;;;;;;666.30;1561.60;;;;;;5110562;28;20375;-55
2022/07/24 03:15:59;;;;;;;;;;;666.30;1587.20;;;;;;5110674;28;19957;-55
2022/07/24 03:18:25;;;;;;;;;;;666.20;1638.40;;;;;;5110570;28;19938;-55
2022/07/24 03:20:50;;;;;;;;;;;666.10;1689.60;;;;;;5110289;28;20289;-56
2022/07/24 03:23:17;;;;;;;;;;;665.90;1792.00;;;;;;5112430;28;19939;-55
2022/07/24 03:25:42;;;;;;;;;;;665.60;1894.40;;;;;;5114055;28;19911;-55
2022/07/24 03:28:08;;;;;;;;;;;640.30;2048.00;;;;;;5113458;28;19918;-55
2022/07/24 03:30:34;;;;;;;;;;;640.20;2073.60;;;;;;5113369;28;19915;-55
2022/07/24 03:32:59;;;;;;;;;;;;;;;;;;5114384;28;19953;-55
2022/07/24 03:35:25;;;;;;;;;;;615.10;2304.00;;;;;;5114109;28;19939;-54
2022/07/24 03:37:51;;;;;;;;;;;614.90;2304.00;;;;;;5113963;28;20327;-55
2022/07/24 03:40:16;;;;;;;;;;;614.80;2432.00;;;;;;5113829;28;19916;-54
2022/07/24 03:42:42;;;;;;;;;;;614.80;2432.00;;;;;;5113962;28;19922;-55
2022/07/24 03:45:08;;;;;;;;;;;614.70;2432.00;;;;;;5114051;28;20261;-55
2022/07/24 03:47:33;;;;;;;;;;;614.60;2432.00;;;;;;5113851;28;19915;-54
2022/07/24 03:49:59;;;;;;;;;;;614.60;2432.00;;;;;;5113733;28;19960;-58
2022/07/24 03:52:24;;;;;;;;;;;614.60;2432.00;;;;;;5113622;28;19908;-54
2022/07/24 03:54:50;;;;;;;;;;;614.70;2432.00;;;;;;5113860;28;20338;-58
2022/07/24 03:57:16;;;;;;;;;;;614.70;2432.00;;;;;;5113763;28;19908;-55
2022/07/24 03:59:41;;;;;;;;;;;614.70;2432.00;;;;;;5113613;28;19926;-55
2022/07/24 04:02:07;;;;;;;;;;;614.60;2432.00;;;;;;5113455;28;19920;-55
2022/07/24 04:04:32;;;;;;;;;;;614.60;2432.00;;;;;;5113473;28;20010;-55
2022/07/24 04:06:58;;;;;;;;;;;614.50;2432.00;;;;;;5113516;28;20350;-56
2022/07/24 04:09:23;;;;;;;;;;;614.60;2432.00;;;;;;5113181;28;19919;-57
2022/07/24 04:11:49;;;;;;;;;;;614.60;2432.00;;;;;;5113567;28;20257;-56
2022/07/24 04:14:15;;;;;;;;;;;614.70;2432.00;;;;;;5113172;28;19912;-56
2022/07/24 04:16:40;;;;;;;;;;;614.70;2432.00;;;;;;5113434;28;19990;-56
2022/07/24 04:19:06;;;;;;;;;;;614.70;2432.00;;;;;;5113114;28;19916;-56
2022/07/24 04:21:31;;;;;;;;;;;614.60;2432.00;;;;;;5113308;28;19915;-55
2022/07/24 04:23:57;;;;;;;;;;;614.60;2432.00;;;;;;5113094;28;19991;-55
2022/07/24 04:26:23;;;;;;;;;;;614.60;2432.00;;;;;;5112947;28;19908;-55
2022/07/24 04:28:49;;;;;;;;;;;614.50;2432.00;;;;;;5113358;28;20041;-55
2022/07/24 04:31:14;;;;;;;;;;;614.60;2432.00;;;;;;5113064;28;20265;-56
2022/07/24 04:33:40;;;;;;;;;;;614.60;2432.00;;;;;;5112188;28;19919;-54
2022/07/24 04:36:06;;;;;;;;;;;614.70;2432.00;;;;;;5112517;28;19930;-56
2022/07/24 04:38:32;;;;;;;;;;;614.80;2432.00;;;;;;5112782;28;19915;-55
2022/07/24 04:40:58;;;;;;;;;;;614.80;2432.00;;;;;;5112980;28;20968;-57
2022/07/24 04:43:24;;;;;;;;;;;614.80;2432.00;;;;;;5112586;28;19923;-56
2022/07/24 04:45:49;;;;;;;;;;;614.80;2432.00;;;;;;5112800;28;19953;-56
2022/07/24 04:48:15;;;;;;;;;;;614.90;2432.00;;;;;;5112729;28;19915;-54
2022/07/24 04:50:40;;;;;;;;;;;615.10;2432.00;;;;;;5112472;28;19914;-55
2022/07/24 04:53:06;;;;;;;;;;;615.30;2432.00;;;;;;5112655;28;19942;-54
2022/07/24 04:55:31;;;;;;;;;;;640.00;2432.00;;;;;;5112592;28;19912;-54
2022/07/24 04:57:57;;;;;;;;;;;665.60;2432.00;;;;;;5112570;28;20020;-54
2022/07/24 05:00:22;;;;;;;;;;;691.50;2432.00;;;;;;5112116;28;19920;-54
2022/07/24 05:02:48;;;;;;;;;;;692.10;2432.00;;;;;;5112649;28;19908;-56
2022/07/24 05:05:13;;;;;;;;;;;716.90;2432.00;;;;;;5112084;28;20269;-55
2022/07/24 05:07:39;;;;;;;;;;;717.60;2432.00;;;;;;5112536;28;19947;-55
2022/07/24 05:10:05;;;;;;;;;;;743.10;2355.20;;;;;;5112085;28;20353;-55
2022/07/24 05:12:31;;;;;;;;;;;768.60;2176.00;;;;;;5112308;28;19911;-55
2022/07/24 05:14:57;;;;;;;;;;;794.40;1996.80;;;;;;5112205;28;19908;-55
2022/07/24 05:17:22;;;;;;;;;;;819.80;1868.80;;;;;;5111944;28;19911;-55
2022/07/24 05:19:48;;;;;;;;;;;845.00;1843.20;;;;;;5111984;28;19955;-54
2022/07/24 05:22:13;;;;;;;;;;;845.40;1766.40;;;;;;5111929;28;19908;-55
2022/07/24 05:24:39;;;;;;;;;;;845.40;1740.80;;;;;;5112117;28;20376;-55
2022/07/24 05:27:04;;;;;;;;;;;870.50;1715.20;;;;;;5112129;28;19950;-55
2022/07/24 05:29:30;;;;;;;;;;;870.90;1664.00;;;;;;5111796;28;20373;-56
2022/07/24 05:31:56;;;;;;;;;;;871.30;1612.80;;;;;;5112074;28;20010;-55
2022/07/24 05:34:22;;;;;;;;;;;871.30;1638.40;;;;;;5111576;28;19998;-56
2022/07/24 05:36:48;;;;;;;;;;;896.30;1561.60;;;;;;5111836;28;19915;-55
2022/07/24 05:39:13;;;;;;;;;;;921.60;1536.00;;;;;;5111587;28;19916;-56
2022/07/24 05:41:39;;;;;;;;;;;922.30;1484.80;;;;;;5111587;28;19912;-56
2022/07/24 05:44:05;;;;;;;;;;;;;;;;;;5111932;28;20365;-55
2022/07/24 05:46:30;;;;;;;;;;;922.50;1459.20;;;;;;5111119;28;19915;-56
2022/07/24 05:48:56;;;;;;;;;;;947.70;1408.00;;;;;;5111544;28;19919;-55
2022/07/24 05:51:21;;;;;;;;;;;947.80;1408.00;;;;;;5111317;28;19911;-55
2022/07/24 05:53:47;;;;;;;;;;;947.70;1408.00;;;;;;5111469;28;19915;-56
2022/07/24 05:56:13;;;;;;;;;;;;;;;;;;5111247;28;20345;-56
2022/07/24 05:58:39;;;;;;;;;;;973.10;1382.40;;;;;;5111307;28;20366;-56
2022/07/24 06:01:04;;;;;;;;;;;973.40;1331.20;;;;;;5111303;28;19920;-58
2022/07/24 06:03:30;;;;;;;;;;;973.30;1356.80;;;;;;5111692;28;20448;-57
2022/07/24 06:05:55;;;;;;;;;;;973.60;1331.20;;;;;;5111100;28;19972;-56
2022/07/24 06:08:21;;;;;;;;;;;998.50;1331.20;;;;;;5110994;28;19912;-56
2022/07/24 06:10:47;;;;;;;;;;;999.00;1305.60;;;;;;5110924;28;20418;-56
2022/07/24 06:13:12;;;;;;;;;;;1024.20;1254.40;;;;;;5110746;28;19916;-56
2022/07/24 06:15:38;;;;;;;;;;;999.20;1280.00;;;;;;5111143;28;19912;-55
2022/07/24 06:18:03;;;;;;;;;;;1024.10;1254.40;;;;;;5110617;28;20347;-55
2022/07/24 06:20:29;;;;;;;;;;;1024.70;1228.80;;;;;;5110616;28;20388;-57
2022/07/24 06:22:55;;;;;;;;;;;973.60;1305.60;;;;;;5092043;28;19908;-54
2022/07/24 06:25:20;;;;;;;;;;;947.70;1356.80;;;;;;5110691;28;19908;-57
2022/07/24 06:27:47;;;;;;;;;;;921.60;1459.20;;;;;;5110936;28;19907;-54
2022/07/24 06:30:14;;;;;;;;;;;871.00;1536.00;;;;;;5110734;28;20304;-56
2022/07/24 06:32:40;;;;;;;;;;;845.40;1612.80;;;;;;5110857;28;19908;-57
2022/07/24 06:35:05;;;;;;;;;;;844.90;1664.00;;;;;;5110979;28;19930;-56
2022/07/24 06:37:31;;;;;;;;;;;820.00;1638.40;;;;;;5110740;28;20304;-57
2022/07/24 06:39:57;;;;;;;;;;;845.20;1638.40;;;;;;5110705;28;20346;-55
2022/07/24 06:42:22;;;;;;;;;;;845.40;1612.80;;;;;;5110467;28;19923;-57
2022/07/24 06:44:48;;;;;;;;;;;845.10;1664.00;;;;;;5109402;28;19923;-56
2022/07/24 06:47:13;;;;;;;;;;;870.90;1561.60;;;;;;5110966;28;20002;-56
2022/07/24 06:49:39;;;;;;;;;;;922.00;1459.20;;;;;;5111089;28;20327;-56
2022/07/24 06:52:04;;;;;;;;;;;947.20;1433.60;;;;;;5110766;28;19915;-56
2022/07/24 06:54:30;;;;;;;;;;;947.40;1408.00;;;;;;5110434;28;19934;-57
2022/07/24 06:56:56;;;;;;;;;;;948.10;1382.40;;;;;;5110641;28;19912;-56
2022/07/24 06:59:21;;;;;;;;;;;973.20;1356.80;;;;;;5114352;28;20288;-57
2022/07/24 07:01:47;;;;;;;;;;;999.10;1305.60;;;;;;5114592;28;19943;-56
2022/07/24 07:04:13;;;;;;;;;;;973.70;1331.20;;;;;;5114459;28;19908;-55
2022/07/24 07:06:38;;;;;;;;;;;947.80;1408.00;;;;;;5114735;28;19915;-57
2022/07/24 07:09:04;;;;;;;;;;;973.70;1331.20;;;;;;5114579;28;19908;-57
2022/07/24 07:11:29;;;;;;;;;;;1024.00;1305.60;;;;;;5114652;28;20401;-55
2022/07/24 07:13:55;;;;;;;;;;;1024.50;1254.40;;;;;;5114667;28;19912;-57
2022/07/24 07:16:20;;;;;;;;;;;999.20;1280.00;;;;;;5114288;28;19912;-57
2022/07/24 07:18:46;;;;;;;;;;;973.10;1305.60;;;;;;5114306;28;19915;-57
2022/07/24 07:21:11;;;;;;;;;;;947.20;1356.80;;;;;;5114073;28;20349;-54
2022/07/24 07:23:37;;;;;;;;;;;973.00;1356.80;;;;;;5114449;28;20389;-55
2022/07/24 07:26:02;;;;;;;;;;;973.20;1331.20;;;;;;5114311;28;20313;-55
2022/07/24 07:28:28;;;;;;;;;;;922.00;1433.60;;;;;;5114137;28;19968;-55
2022/07/24 07:30:54;;;;;;;;;;;947.80;1356.80;;;;;;5113971;28;19958;-56
2022/07/24 07:33:19;;;;;;;;;;;998.70;1280.00;;;;;;5113198;28;19919;-55
2022/07/24 07:35:45;;;;;;;;;;;947.70;1331.20;;;;;;5112984;28;19908;-56
2022/07/24 07:38:10;;;;;;;;;;;922.40;1408.00;;;;;;5113068;28;19908;-56
2022/07/24 07:40:36;;;;;;;;;;;922.40;1382.40;;;;;;5113767;28;19932;-56
2022/07/24 07:43:02;;;;;;;;;;;922.00;1408.00;;;;;;5114040;28;19962;-56
2022/07/24 07:45:28;;;;;;;;;;;;;;;;;;5114012;28;19908;-55
2022/07/24 07:47:53;;;;;;;;;;;896.80;1382.40;;;;;;5113556;28;19954;-53
2022/07/24 07:50:19;;;;;;;;;;;870.70;1484.80;;;;;;5113868;28;19915;-55
2022/07/24 07:52:44;;;;;;;;;;;871.10;1459.20;;;;;;5113560;28;19915;-54
2022/07/24 07:55:10;;;;;;;;;;;948.10;1305.60;;;;;;5113708;28;19908;-55
2022/07/24 07:57:37;;;;;;;;;;;999.10;1228.80;;;;;;5113710;28;19912;-55
2022/07/24 08:00:03;;;;;;;;;;;1024.30;1203.20;;;;;;5113382;28;19921;-55
2022/07/24 08:02:29;;;;;;;;;;;1050.00;1177.60;;;;;;5113663;28;19943;-55
2022/07/24 08:04:55;;;;;;;;;;;1075.40;1152.00;;;;;;5113369;28;19954;-55
2022/07/24 08:07:20;;;;;;;;;;;1101.00;1126.40;;;;;;5113755;28;20000;-56
2022/07/24 08:09:46;;;;;;;;;;;1101.40;1075.20;;;;;;5113539;28;19950;-55
2022/07/24 08:12:11;;;;;;;;;;;1126.80;1049.60;;;;;;5113197;28;19912;-55
2022/07/24 08:14:37;;;;;;;;;;;1126.70;1049.60;;;;;;5113137;28;19919;-54
2022/07/24 08:17:03;;;;;;;;;;;1127.00;1049.60;;;;;;5112260;28;19916;-54
2022/07/24 08:19:28;;;;;;;;;;;1127.00;1024.00;;;;;;5112354;28;19922;-58
2022/07/24 08:21:54;;;;;;;;;;;1101.40;1049.60;;;;;;5112273;28;19908;-53
2022/07/24 08:24:22;;;;;;;;;;;1101.50;1049.60;;;;;;5110237;28;19911;-54
2022/07/24 08:26:48;;;;;;;;;;;1100.90;1049.60;;;;;;5111661;28;20599;-54
2022/07/24 08:29:14;;;;;;;;;;;1049.70;1126.40;;;;;;5111500;28;19911;-56
2022/07/24 08:31:39;;;;;;;;;;;998.90;1203.20;;;;;;5110725;28;20396;-55
2022/07/24 08:34:05;;;;;;;;;;;973.20;1254.40;;;;;;5111272;28;20273;-56
2022/07/24 08:36:30;;;;;;;;;;;947.70;1280.00;;;;;;5110282;28;20383;-55
2022/07/24 08:38:56;;;;;;;;;;;922.50;1280.00;;;;;;5111359;28;19927;-55
2022/07/24 08:41:22;;;;;;;;;;;922.30;1305.60;;;;;;5111094;28;19968;-56
2022/07/24 08:43:47;;;;;;;;;;;922.50;1280.00;;;;;;5111436;28;19919;-55
2022/07/24 08:46:14;;;;;;;;;;;922.40;1305.60;;;;;;5111199;28;20586;-55
2022/07/24 08:48:42;;;;;;;;;;;922.40;1305.60;;;;;;5111294;28;19934;-56
2022/07/24 08:51:08;;;;;;;;;;;922.10;1331.20;;;;;;5110911;28;19934;-57
2022/07/24 08:53:33;;;;;;;;;;;922.00;1331.20;;;;;;5110967;28;20311;-56
2022/07/24 08:55:59;;;;;;;;;;;922.00;1331.20;;;;;;5111151;28;19919;-56
2022/07/24 08:58:24;;;;;;;;;;;896.80;1356.80;;;;;;5111306;28;19907;-56
2022/07/24 09:00:50;;;;;;;;;;;896.90;1305.60;;;;;;5113003;28;20126;-56
2022/07/24 09:03:15;;;;;;;;;;;921.60;1331.20;;;;;;5112435;28;19908;-56
2022/07/24 09:05:55;;;;;;;;;;;921.70;1331.20;;;;;;5112134;28;19945;-56
2022/07/24 09:08:20;;;;;;;;;;;921.70;1356.80;;;;;;5112585;28;20303;-56
2022/07/24 09:10:59;;;;;;;;;;;921.70;1331.20;;;;;;5112363;28;19911;-56
2022/07/24 09:13:26;;;;;;;;;;;921.90;1305.60;;;;;;5112181;28;19911;-56
2022/07/24 09:15:52;;;;;;;;;;;896.90;1331.20;;;;;;5112025;28;20257;-56
2022/07/24 09:18:31;;;;;;;;;;;896.80;1305.60;;;;;;5112139;28;19953;-56
2022/07/24 09:20:57;;;;;;;;;;;896.90;1280.00;;;;;;5111550;28;19920;-56
2022/07/24 09:23:23;;;;;;;;;;;896.40;1331.20;;;;;;5112058;28;20365;-56
2022/07/24 09:25:52;;;;;;;;;;;896.40;1305.60;;;;;;5112073;28;19915;-56
2022/07/24 09:28:19;;;;;;;;;;;896.70;1331.20;;;;;;5111940;28;19994;-56
2022/07/24 09:30:46;;;;;;;;;;;896.70;1305.60;;;;;;5111629;28;19937;-56
2022/07/24 09:33:11;;;;;;;;;;;896.00;1305.60;;;;;;5111788;28;20362;-56
2022/07/24 09:35:38;;;;;;;;;;;896.70;1356.80;;;;;;5111915;28;19915;-56
2022/07/24 09:38:05;;;;;;;;;;;896.90;1305.60;;;;;;5111714;28;20353;-56
2022/07/24 09:40:33;;;;;;;;;;;921.60;1305.60;;;;;;5111503;28;19943;-56
2022/07/24 09:43:31;;;;;;;;;;;896.70;1280.00;;;;;;5111661;28;19998;-56
2022/07/24 09:45:59;;;;;;;;;;;896.40;1305.60;;;;;;5009336;28;19913;-56
2022/07/24 09:48:30;;;;;;;;;;;896.60;1305.60;;;;;;5009220;28;20310;-56
2022/07/24 09:50:57;;;;;;;;;;;921.60;1305.60;;;;;;5009126;28;19917;-56
2022/07/24 09:53:30;;;;;;;;;;;921.80;1305.60;;;;;;5008900;28;19921;-55
2022/07/24 09:55:59;;;;;;;;;;;921.70;1280.00;;;;;;5007263;28;19993;-55
2022/07/24 09:58:25;;;;;;;;;;;921.70;1280.00;;;;;;5007112;28;19910;-55
2022/07/24 10:00:55;;;;;;;;;;;896.40;1254.40;;;;;;5007024;28;19921;-55
2022/07/24 10:03:24;;;;;;;;;;;921.60;1280.00;;;;;;5007104;28;19909;-57
2022/07/24 10:05:53;;;;;;;;;;;921.70;1280.00;;;;;;5007179;28;20056;-55
2022/07/24 10:08:19;;;;;;;;;;;921.80;1280.00;;;;;;5006847;28;19957;-55
2022/07/24 10:10:44;;;;;;;;;;;896.80;1254.40;;;;;;5006533;28;19918;-55
2022/07/24 10:13:10;;;;;;;;;;;921.70;1254.40;;;;;;5006791;28;19914;-57
2022/07/24 10:15:44;;;;;;;;;;;921.80;1228.80;;;;;;5007000;28;19924;-56
2022/07/24 10:18:10;;;;;;;;;;;921.60;1203.20;;;;;;5007080;28;20126;-55
2022/07/24 10:20:40;;;;;;;;;;;896.90;1228.80;;;;;;5015931;28;19917;-57
2022/07/24 10:23:06;;;;;;;;;;;896.90;1228.80;;;;;;5088543;28;19915;-55
2022/07/24 10:25:42;;;;;;;;;;;896.90;1228.80;;;;;;5089252;28;19912;-55
2022/07/24 10:28:08;;;;;;;;;;;896.50;1254.40;;;;;;5088602;28;19928;-55
2022/07/24 10:30:33;;;;;;;;;;;896.90;1228.80;;;;;;5087943;28;20026;-55
2022/07/24 10:32:59;;;;;;;;;;;921.70;1254.40;;;;;;5087669;28;20003;-55
2022/07/24 10:35:27;;;;;;;;;;;921.70;1254.40;;;;;;5088327;28;20015;-55
2022/07/24 10:37:56;;;;;;;;;;;921.80;1228.80;;;;;;5088822;28;19931;-55
2022/07/24 10:40:48;;;;;;;;;;;922.00;1254.40;;;;;;5088672;28;20318;-56
2022/07/24 10:43:18;;;;;;;;;;;921.70;1305.60;;;;;;5085637;28;19971;-55
2022/07/24 10:46:06;;;;;;;;;;;896.70;1305.60;;;;;;5088377;28;19916;-54
2022/07/24 10:48:33;;;;;;;;;;;896.60;1305.60;;;;;;5088224;28;19913;-55
2022/07/24 10:51:07;;;;;;;;;;;896.50;1331.20;;;;;;5089240;28;20401;-54
2022/07/24 10:53:38;;;;;;;;;;;896.40;1331.20;;;;;;5090564;28;19912;-55
2022/07/24 10:56:04;;;;;;;;;;;;;;;;;;5090910;28;19908;-53
2022/07/24 10:58:30;;;;;;;;;;;896.40;1331.20;;;;;;5089846;28;19912;-55
2022/07/24 11:00:56;;;;;;;;;;;871.10;1356.80;;;;;;5098754;28;19924;-54
2022/07/24 11:03:23;;;;;;;;;;;871.10;1382.40;;;;;;5110723;28;19960;-56
2022/07/24 11:06:08;;;;;;;;;;;871.10;1382.40;;;;;;5110680;28;19915;-55
2022/07/24 11:08:38;;;;;;;;;;;871.10;1382.40;;;;;;5110588;28;19908;-54
2022/07/24 11:11:14;;;;;;;;;;;871.30;1356.80;;;;;;5110431;28;20007;-56
2022/07/24 11:13:42;;;;;;;;;;;871.20;1382.40;;;;;;5110563;28;20435;-56
2022/07/24 11:16:11;;;;;;;;;;;871.30;1356.80;;;;;;5109851;28;19908;-53
2022/07/24 11:19:00;;;;;;;;;;;896.10;1356.80;;;;;;5108674;28;19908;-55
2022/07/24 11:21:35;;;;;;;;;;;896.10;1305.60;;;;;;5006281;28;20327;-54
2022/07/24 11:24:22;;;;;;;;;;;896.20;1331.20;;;;;;5006113;28;19910;-54
2022/07/24 11:26:48;;;;;;;;;;;896.10;1305.60;;;;;;5006393;28;19993;-54
2022/07/24 11:29:14;;;;;;;;;;;896.10;1305.60;;;;;;5005911;28;19960;-55
2022/07/24 11:31:40;;;;;;;;;;;896.20;1305.60;;;;;;5006032;28;19909;-54
2022/07/24 11:34:07;;;;;;;;;;;896.70;1280.00;;;;;;5006377;28;19914;-54
2022/07/24 11:36:33;;;;;;;;;;;896.70;1305.60;;;;;;5006187;28;20351;-55
2022/07/24 11:38:59;;;;;;;;;;;896.80;1254.40;;;;;;5006186;28;19922;-55
2022/07/24 11:41:25;;;;;;;;;;;896.80;1254.40;;;;;;5005940;28;19920;-54
2022/07/24 11:43:51;;;;;;;;;;;896.80;1254.40;;;;;;5006633;28;19924;-54
2022/07/24 11:46:33;;;;;;;;;;;896.80;1280.00;;;;;;5009655;28;19913;-54
2022/07/24 11:49:05;;;;;;;;;;;896.90;1305.60;;;;;;5009584;28;19913;-55
2022/07/24 11:51:31;;;;;;;;;;;896.70;1305.60;;;;;;5009344;28;19909;-54
2022/07/24 11:53:56;;;;;;;;;;;896.70;1305.60;;;;;;5009645;28;19909;-54
2022/07/24 11:56:22;;;;;;;;;;;896.40;1331.20;;;;;;5008929;28;20384;-54
2022/07/24 11:58:48;;;;;;;;;;;896.40;1305.60;;;;;;5076344;28;20313;-55
2022/07/24 12:01:20;;;;;;;;;;;896.50;1331.20;;;;;;5112036;28;19930;-54
2022/07/24 12:03:53;;;;;;;;;;;896.80;1305.60;;;;;;5112138;28;19912;-54
2022/07/24 12:06:19;;;;;;;;;;;896.80;1305.60;;;;;;5112139;28;19907;-53
2022/07/24 12:08:45;;;;;;;;;;;896.50;1305.60;;;;;;5111376;28;19968;-53
2022/07/24 12:11:13;;;;;;;;;;;896.70;1305.60;;;;;;5111904;28;19947;-54
2022/07/24 12:13:42;;;;;;;;;;;896.50;1331.20;;;;;;5112000;28;19994;-54
2022/07/24 12:16:07;;;;;;;;;;;896.50;1356.80;;;;;;5111919;28;20032;-54
2022/07/24 12:18:33;;;;;;;;;;;896.20;1356.80;;;;;;5111682;28;20434;-53
2022/07/24 12:21:00;;;;;;;;;;;896.20;1356.80;;;;;;5110565;28;19938;-54
2022/07/24 12:23:25;;;;;;;;;;;896.30;1331.20;;;;;;5109852;28;20004;-53
2022/07/24 12:25:51;;;;;;;;;;;896.50;1331.20;;;;;;5109975;28;19942;-55
2022/07/24 12:28:18;;;;;;;;;;;896.60;1305.60;;;;;;5110239;28;19908;-53
2022/07/24 12:30:45;;;;;;;;;;;896.80;1331.20;;;;;;5110097;28;19912;-54
2022/07/24 12:33:17;;;;;;;;;;;896.60;1305.60;;;;;;5109784;28;19912;-54
2022/07/24 12:36:08;;;;;;;;;;;896.70;1331.20;;;;;;5109816;28;19931;-53
2022/07/24 12:38:35;;;;;;;;;;;896.90;1331.20;;;;;;5110249;28;19908;-52
2022/07/24 12:41:05;;;;;;;;;;;896.90;1331.20;;;;;;5110141;28;19974;-55
2022/07/24 12:43:30;;;;;;;;;;;896.70;1305.60;;;;;;5109998;28;19919;-55
2022/07/24 12:46:06;;;;;;;;;;;896.60;1305.60;;;;;;5110078;28;19912;-54
2022/07/24 12:48:32;;;;;;;;;;;896.40;1331.20;;;;;;5109474;28;19915;-54
2022/07/24 12:50:58;;;;;;;;;;;896.40;1331.20;;;;;;5109956;28;19986;-55
2022/07/24 12:53:25;;;;;;;;;;;896.40;1331.20;;;;;;5110043;28;20368;-53
2022/07/24 12:56:04;;;;;;;;;;;896.40;1331.20;;;;;;5108779;28;19908;-54
2022/07/24 12:58:46;;;;;;;;;;;896.50;1305.60;;;;;;5109593;28;20006;-55
2022/07/24 13:01:12;;;;;;;;;;;896.80;1305.60;;;;;;5109269;28;19954;-54
2022/07/24 13:03:37;;;;;;;;;;;896.80;1280.00;;;;;;5109855;28;19908;-54
2022/07/24 13:06:03;;;;;;;;;;;896.70;1280.00;;;;;;5109430;28;19908;-54
2022/07/24 13:08:28;;;;;;;;;;;896.40;1280.00;;;;;;5109573;28;19923;-53
2022/07/24 13:10:55;;;;;;;;;;;896.50;1305.60;;;;;;5110513;28;20034;-54
2022/07/24 13:13:21;;;;;;;;;;;896.00;1305.60;;;;;;5111449;28;19916;-53
2022/07/24 13:15:46;;;;;;;;;;;871.30;1331.20;;;;;;5113053;28;20358;-52
2022/07/24 13:18:12;;;;;;;;;;;871.10;1331.20;;;;;;5112252;28;20453;-53
2022/07/24 13:20:37;;;;;;;;;;;871.30;1356.80;;;;;;5111898;28;19931;-55
2022/07/24 13:23:03;;;;;;;;;;;871.10;1356.80;;;;;;5112105;28;19954;-53
2022/07/24 13:25:29;;;;;;;;;;;870.90;1356.80;;;;;;5112196;28;20281;-53
2022/07/24 13:27:54;;;;;;;;;;;870.90;1356.80;;;;;;5111780;28;20265;-52
2022/07/24 13:30:20;;;;;;;;;;;871.10;1331.20;;;;;;5112265;28;19908;-52
2022/07/24 13:32:45;;;;;;;;;;;871.10;1331.20;;;;;;5112135;28;20273;-53
2022/07/24 13:35:11;;;;;;;;;;;896.00;1331.20;;;;;;5111366;28;20366;-56
2022/07/24 13:37:36;;;;;;;;;;;871.10;1356.80;;;;;;5111846;28;19912;-53
2022/07/24 13:40:04;;;;;;;;;;;870.50;1382.40;;;;;;5111424;28;19924;-55
2022/07/24 13:42:31;;;;;;;;;;;845.50;1408.00;;;;;;5111596;28;19916;-55
2022/07/24 13:44:57;;;;;;;;;;;870.40;1382.40;;;;;;5109825;28;19912;-53
2022/07/24 13:47:22;;;;;;;;;;;870.70;1382.40;;;;;;5110064;28;20455;-54
2022/07/24 13:49:48;;;;;;;;;;;870.80;1356.80;;;;;;5110048;28;19915;-54
2022/07/24 13:52:14;;;;;;;;;;;870.80;1356.80;;;;;;5109762;28;19952;-54
2022/07/24 13:54:40;;;;;;;;;;;871.00;1331.20;;;;;;5110170;28;20417;-54
2022/07/24 13:57:06;;;;;;;;;;;871.30;1305.60;;;;;;5109623;28;20364;-54